Time;durP1;ratioP1;P1;durP2;ratioP2;P2;SDS_P1;SDS_P2;PMS_P1;PMS_P2;Temp;Humidity;BMP_temperature;BMP_pressure;BME280_temperature;BME280_humidity;BME280_pressure;Samples;Min_cycle;Max_cycle;Signal;HPM_P1;HPM_P2
2022/06/05 00:01:47;;;;;;;4.50;1.37;;;24.70;46.70;;;;;;4900462;28;88469;-72
2022/06/05 00:04:22;;;;;;;1.30;1.17;;;24.60;46.70;;;;;;4900890;28;92539;-72
2022/06/05 00:06:55;;;;;;;1.63;1.30;;;24.60;46.70;;;;;;4901202;28;91356;-72
2022/06/05 00:09:31;;;;;;;1.10;1.00;;;24.60;46.70;;;;;;4900848;28;88591;-71
2022/06/05 00:12:04;;;;;;;1.53;1.23;;;24.60;46.70;;;;;;4901421;28;89323;-72
2022/06/05 00:14:32;;;;;;;3.40;1.00;;;24.70;46.70;;;;;;4901209;28;91270;-71
2022/06/05 00:17:00;;;;;;;3.80;1.33;;;24.70;46.70;;;;;;4903526;28;88583;-72
2022/06/05 00:19:30;;;;;;;1.37;1.27;;;24.60;46.60;;;;;;4904389;28;88520;-72
2022/06/05 00:21:58;;;;;;;1.50;1.40;;;24.60;47.30;;;;;;4904040;28;90397;-72
2022/06/05 00:24:26;;;;;;;1.70;1.17;;;24.70;46.70;;;;;;4905049;28;88267;-71
2022/06/05 00:26:56;;;;;;;3.03;1.40;;;24.70;46.70;;;;;;4904348;28;89328;-71
2022/06/05 00:29:33;;;;;;;1.60;1.20;;;24.70;46.70;;;;;;4904545;28;88944;-72
2022/06/05 00:32:08;;;;;;;1.40;1.30;;;24.70;46.70;;;;;;4903977;28;89672;-71
2022/06/05 00:34:36;;;;;;;4.30;1.00;;;24.70;46.70;;;;;;4903948;28;91103;-71
2022/06/05 00:37:10;;;;;;;1.57;1.40;;;24.60;46.60;;;;;;4903489;28;89665;-71
2022/06/05 00:39:43;;;;;;;2.83;1.40;;;24.60;46.80;;;;;;4904020;28;88594;-72
2022/06/05 00:42:13;;;;;;;6.20;1.67;;;24.60;47.50;;;;;;4903181;28;90182;-73
2022/06/05 00:44:45;;;;;;;4.83;1.40;;;24.60;46.80;;;;;;4903449;28;89348;-73
2022/06/05 00:47:19;;;;;;;1.50;1.23;;;24.60;46.90;;;;;;4903686;28;88579;-73
2022/06/05 00:49:51;;;;;;;1.87;1.53;;;24.60;47.00;;;;;;4904707;28;88643;-72
2022/06/05 00:52:27;;;;;;;1.70;1.40;;;24.60;47.00;;;;;;4903800;28;90099;-72
2022/06/05 00:54:55;;;;;;;7.53;1.80;;;24.60;47.10;;;;;;4885401;28;88974;-72
2022/06/05 00:57:24;;;;;;;2.67;1.50;;;24.50;47.10;;;;;;4888746;28;90792;-73
2022/06/05 00:59:54;;;;;;;2.70;1.60;;;24.50;47.20;;;;;;4904404;28;88442;-80
2022/06/05 01:02:22;;;;;;;2.33;1.60;;;24.50;47.20;;;;;;4903827;28;89748;-82
2022/06/05 01:04:50;;;;;;;4.50;1.50;;;24.50;46.80;;;;;;4903018;28;89348;-81
2022/06/05 01:07:18;;;;;;;2.37;1.63;;;24.50;47.30;;;;;;4904079;28;89310;-81
2022/06/05 01:09:47;;;;;;;2.07;1.27;;;24.60;47.40;;;;;;4904767;28;88618;-80
2022/06/05 01:12:23;;;;;;;3.67;1.20;;;24.60;47.40;;;;;;4903690;28;91657;-72
2022/06/05 01:14:57;;;;;;;1.30;1.03;;;24.70;47.30;;;;;;4898780;28;90178;-72
2022/06/05 01:17:34;;;;;;;2.50;1.43;;;24.70;47.30;;;;;;4903836;28;91354;-72
2022/06/05 01:20:10;;;;;;;2.40;1.40;;;24.70;47.30;;;;;;4903366;28;88700;-73
2022/06/05 01:22:57;;;;;;;1.80;1.07;;;24.80;47.30;;;;;;4888772;28;92199;-72
2022/06/05 01:25:55;;;;;;;0.97;0.97;;;24.80;47.30;;;;;;4902618;28;89458;-72
2022/06/05 01:28:28;;;;;;;1.80;1.37;;;24.90;47.30;;;;;;4894435;28;88412;-72
2022/06/05 01:31:05;;;;;;;1.07;0.93;;;24.90;47.30;;;;;;4902272;28;88717;-71
2022/06/05 01:33:38;;;;;;;1.50;1.40;;;24.90;47.20;;;;;;4903641;28;90718;-72
2022/06/05 01:36:08;;;;;;;1.40;1.27;;;24.90;47.20;;;;;;4903183;28;89028;-72
2022/06/05 01:38:43;;;;;;;1.50;1.10;;;24.90;47.20;;;;;;4902428;28;88670;-72
2022/06/05 01:41:14;;;;;;;2.43;1.20;;;24.90;47.20;;;;;;4899921;28;88648;-73
2022/06/05 01:43:44;;;;;;;2.27;1.50;;;24.90;47.10;;;;;;4892729;28;91481;-73
2022/06/05 01:46:16;;;;;;;1.33;1.23;;;24.90;47.20;;;;;;4902299;28;91206;-73
2022/06/05 01:48:46;;;;;;;3.00;1.53;;;24.90;47.20;;;;;;4903201;28;89994;-72
2022/06/05 01:51:17;;;;;;;2.03;1.33;;;24.90;47.30;;;;;;4903044;28;88761;-72
2022/06/05 01:53:46;;;;;;;1.07;0.97;;;24.90;47.30;;;;;;4903363;28;92264;-73
2022/06/05 01:56:18;;;;;;;1.83;1.10;;;24.90;47.30;;;;;;4903346;28;89375;-72
2022/06/05 01:58:47;;;;;;;1.60;1.50;;;24.90;47.30;;;;;;4903488;28;88577;-72
2022/06/05 02:01:19;;;;;;;1.80;1.63;;;24.90;47.30;;;;;;4902701;28;88518;-73
2022/06/05 02:03:49;;;;;;;4.37;1.10;;;24.90;47.20;;;;;;4903110;28;90680;-73
2022/06/05 02:06:30;;;;;;;2.50;1.47;;;24.90;47.30;;;;;;4903265;28;89292;-73
2022/06/05 02:08:59;;;;;;;2.10;1.67;;;24.90;47.30;;;;;;4903121;28;88365;-74
2022/06/05 02:11:30;;;;;;;5.47;1.70;;;24.80;47.30;;;;;;4902699;28;88629;-73
2022/06/05 02:14:03;;;;;;;2.83;1.60;;;24.80;47.40;;;;;;4902668;28;89628;-74
2022/06/05 02:16:31;;;;;;;3.60;1.83;;;24.80;47.50;;;;;;4903118;28;89249;-73
2022/06/05 02:19:01;;;;;;;1.73;1.27;;;24.80;47.50;;;;;;4901763;28;88575;-72
2022/06/05 02:21:29;;;;;;;3.63;1.77;;;24.70;47.50;;;;;;4902801;28;88637;-72
2022/06/05 02:23:58;;;;;;;2.30;1.63;;;24.70;47.50;;;;;;4902341;28;89560;-73
2022/06/05 02:26:27;;;;;;;2.97;1.70;;;24.60;47.60;;;;;;4901827;28;89180;-73
2022/06/05 02:28:57;;;;;;;2.40;1.97;;;24.60;47.60;;;;;;4902275;28;89057;-73
2022/06/05 02:31:31;;;;;;;4.87;2.30;;;24.60;47.70;;;;;;4902697;28;88455;-73
2022/06/05 02:34:06;;;;;;;4.63;1.70;;;24.60;47.80;;;;;;4899674;28;89438;-72
2022/06/05 02:36:37;;;;;;;2.17;1.50;;;24.50;47.80;;;;;;4901881;28;89484;-73
2022/06/05 02:39:08;;;;;;;4.70;1.33;;;24.50;47.90;;;;;;4901506;28;88393;-72
2022/06/05 02:41:41;;;;;;;2.10;1.43;;;24.40;47.90;;;;;;4902639;28;88519;-73
2022/06/05 02:44:31;;;;;;;4.63;2.27;;;24.40;47.90;;;;;;4901778;28;89312;-73
2022/06/05 02:47:18;;;;;;;3.27;1.97;;;24.40;48.00;;;;;;4902338;28;89963;-73
2022/06/05 02:49:49;;;;;;;1.47;1.27;;;24.30;48.10;;;;;;4901344;28;88453;-72
2022/06/05 02:52:19;;;;;;;4.03;1.67;;;24.30;48.20;;;;;;4901036;28;89791;-72
2022/06/05 02:54:50;;;;;;;2.33;1.63;;;24.20;48.20;;;;;;4901268;28;89554;-72
2022/06/05 02:57:20;;;;;;;6.60;1.93;;;24.20;48.30;;;;;;4901496;28;90239;-78
2022/06/05 02:59:49;;;;;;;2.00;1.50;;;24.20;48.30;;;;;;4902246;28;88704;-79
2022/06/05 03:05:03;;;;;;;2.10;1.50;;;24.20;48.40;;;;;;4899906;28;90288;-79
2022/06/05 03:07:31;;;;;;;3.50;2.07;;;24.20;48.50;;;;;;4902696;28;88329;-78
2022/06/05 03:09:59;;;;;;;4.40;1.90;;;24.20;48.60;;;;;;4902424;28;89516;-78
2022/06/05 03:12:27;;;;;;;4.13;1.90;;;24.20;48.60;;;;;;4901964;28;88658;-78
2022/06/05 03:15:01;;;;;;;3.10;1.57;;;24.20;48.60;;;;;;4900597;28;90668;-79
2022/06/05 03:17:29;;;;;;;1.63;1.40;;;24.20;48.60;;;;;;4901224;28;89291;-78
2022/06/05 03:19:57;;;;;;;1.77;1.43;;;24.20;48.60;;;;;;4892682;28;90385;-79
2022/06/05 03:22:26;;;;;;;3.83;1.57;;;24.20;48.70;;;;;;4902573;28;88400;-79
2022/06/05 03:24:54;;;;;;;2.17;1.60;;;24.20;48.70;;;;;;4901492;28;89556;-79
2022/06/05 03:27:22;;;;;;;1.67;1.40;;;24.20;48.70;;;;;;4901128;28;89189;-79
2022/06/05 03:29:51;;;;;;;3.33;1.40;;;24.10;48.70;;;;;;4901671;28;88697;-72
2022/06/05 03:32:20;;;;;;;3.63;1.90;;;24.20;48.80;;;;;;4901972;28;88810;-73
2022/06/05 03:34:48;;;;;;;1.93;1.73;;;24.10;48.70;;;;;;4901514;28;90220;-73
2022/06/05 03:37:16;;;;;;;3.17;1.13;;;24.10;48.80;;;;;;4901934;28;90161;-73
2022/06/05 03:39:44;;;;;;;1.87;1.63;;;24.10;49.40;;;;;;4900946;28;88445;-73
2022/06/05 03:42:12;;;;;;;2.40;1.73;;;24.10;48.80;;;;;;4901945;28;88550;-73
2022/06/05 03:44:41;;;;;;;1.87;1.50;;;24.10;48.80;;;;;;4898863;28;89943;-73
2022/06/05 03:47:09;;;;;;;5.20;1.70;;;24.00;48.80;;;;;;4901228;28;88945;-72
2022/06/05 03:49:39;;;;;;;1.77;1.50;;;24.00;48.80;;;;;;4902608;28;88648;-73
2022/06/05 03:52:07;;;;;;;2.00;1.50;;;24.00;48.80;;;;;;4905439;28;88321;-72
2022/06/05 03:54:35;;;;;;;1.07;0.93;;;24.00;48.90;;;;;;4904198;28;88544;-74
2022/06/05 03:57:04;;;;;;;7.20;1.70;;;24.10;49.00;;;;;;4904581;28;89494;-72
2022/06/05 03:59:34;;;;;;;2.20;1.50;;;24.10;49.00;;;;;;4904541;28;88799;-72
2022/06/05 04:02:02;;;;;;;1.20;1.03;;;24.20;49.00;;;;;;4904725;28;88420;-72
2022/06/05 04:04:30;;;;;;;1.53;1.43;;;24.30;49.00;;;;;;4902275;28;89427;-73
2022/06/05 04:06:59;;;;;;;2.33;1.20;;;24.40;49.00;;;;;;4904702;28;89532;-73
2022/06/05 04:09:27;;;;;;;2.63;1.40;;;24.50;49.00;;;;;;4905164;28;88715;-72
2022/06/05 04:11:55;;;;;;;1.67;1.37;;;24.50;48.90;;;;;;4905232;28;88702;-72
2022/06/05 04:14:23;;;;;;;4.83;1.40;;;24.60;48.90;;;;;;4905418;28;90579;-72
2022/06/05 04:16:51;;;;;;;2.33;1.50;;;24.70;49.00;;;;;;4904394;28;91514;-72
2022/06/05 04:19:21;;;;;;;4.53;1.70;;;24.70;48.90;;;;;;4904781;28;89267;-72
2022/06/05 04:21:49;;;;;;;1.83;1.63;;;24.70;48.80;;;;;;4904838;28;88515;-72
2022/06/05 04:24:18;;;;;;;2.40;1.50;;;24.70;48.80;;;;;;4904846;28;89700;-72
2022/06/05 04:26:46;;;;;;;2.47;1.13;;;24.80;48.70;;;;;;4904424;28;89401;-72
2022/06/05 04:29:14;;;;;;;2.00;1.63;;;24.80;48.70;;;;;;4904935;28;88463;-72
2022/06/05 04:31:44;;;;;;;2.60;1.20;;;24.80;48.70;;;;;;4905090;28;88372;-73
2022/06/05 04:34:13;;;;;;;2.00;1.00;;;24.80;48.70;;;;;;4904796;28;94040;-73
2022/06/05 04:36:41;;;;;;;2.20;1.40;;;24.80;48.60;;;;;;4900753;28;89795;-72
2022/06/05 04:39:11;;;;;;;1.23;1.13;;;24.90;48.70;;;;;;4905193;28;91239;-72
2022/06/05 04:41:40;;;;;;;1.70;1.23;;;24.90;48.70;;;;;;4904357;28;88684;-72
2022/06/05 04:44:09;;;;;;;1.40;1.30;;;24.90;48.60;;;;;;4904429;28;92253;-72
2022/06/05 04:46:37;;;;;;;1.67;1.20;;;24.80;48.50;;;;;;4904251;28;91564;-72
2022/06/05 04:49:06;;;;;;;1.30;1.10;;;24.90;48.50;;;;;;4905212;28;89158;-71
2022/06/05 04:51:34;;;;;;;1.80;1.50;;;24.90;48.50;;;;;;4904608;28;88865;-71
2022/06/05 04:54:02;;;;;;;1.57;1.20;;;24.90;48.50;;;;;;4904524;28;90840;-73
2022/06/05 04:56:32;;;;;;;1.20;1.10;;;24.90;48.40;;;;;;4904706;28;89547;-73
2022/06/05 04:59:01;;;;;;;1.90;1.13;;;24.90;48.40;;;;;;4904551;28;91150;-72
2022/06/05 05:01:37;;;;;;;1.23;1.13;;;24.90;48.40;;;;;;4905801;28;89323;-72
2022/06/05 05:04:08;;;;;;;3.23;1.40;;;24.90;48.40;;;;;;4905535;28;89999;-73
2022/06/05 05:06:36;;;;;;;1.53;1.30;;;24.90;48.40;;;;;;4904898;28;92522;-72
2022/06/05 05:09:04;;;;;;;1.37;1.27;;;24.90;48.40;;;;;;4904400;28;88909;-72
2022/06/05 05:11:32;;;;;;;1.67;1.30;;;24.90;48.30;;;;;;4903312;28;88667;-72
2022/06/05 05:14:01;;;;;;;11.03;1.33;;;25.00;48.40;;;;;;4904101;28;90787;-71
2022/06/05 05:16:30;;;;;;;2.30;1.50;;;25.00;48.30;;;;;;4908489;28;89605;-78
2022/06/05 05:19:06;;;;;;;2.40;1.17;;;25.00;48.30;;;;;;4910295;28;88442;-79
2022/06/05 05:21:34;;;;;;;1.93;1.30;;;25.00;48.20;;;;;;4907005;28;89117;-71
2022/06/05 05:24:02;;;;;;;1.30;1.20;;;25.00;48.20;;;;;;4908146;28;89633;-79
2022/06/05 05:26:31;;;;;;;1.97;1.50;;;25.00;48.20;;;;;;4908547;28;90318;-78
2022/06/05 05:28:59;;;;;;;1.80;1.07;;;25.00;48.20;;;;;;4902615;28;91885;-78
2022/06/05 05:31:29;;;;;;;2.60;1.60;;;25.00;48.20;;;;;;4903645;28;88627;-78
2022/06/05 05:33:57;;;;;;;2.80;1.27;;;25.00;48.20;;;;;;4904479;28;88521;-71
2022/06/05 05:36:25;;;;;;;1.50;1.23;;;25.00;48.20;;;;;;4904469;28;90136;-72
2022/06/05 05:44:35;;;;;;;2.20;0.90;;;25.00;48.20;;;;;;4904858;28;90246;-73
2022/06/05 05:47:06;;;;;;;1.63;1.30;;;25.00;48.10;;;;;;4905537;28;89310;-71
2022/06/05 05:49:34;;;;;;;1.63;1.53;;;25.00;48.10;;;;;;4906145;28;88746;-79
2022/06/05 05:52:02;;;;;;;2.00;1.40;;;24.90;48.00;;;;;;4908447;28;88578;-78
2022/06/05 05:54:30;;;;;;;2.37;1.20;;;25.00;48.00;;;;;;4902597;28;90100;-77
2022/06/05 05:56:58;;;;;;;1.50;1.20;;;25.10;48.10;;;;;;4903547;28;89579;-71
2022/06/05 05:59:26;;;;;;;2.40;1.30;;;25.10;48.10;;;;;;4899697;28;88658;-77
2022/06/05 06:01:54;;;;;;;1.47;1.20;;;25.10;48.00;;;;;;4902928;28;89348;-77
2022/06/05 06:04:25;;;;;;;1.90;1.60;;;25.10;47.90;;;;;;4901843;28;88556;-71
2022/06/05 06:06:54;;;;;;;1.23;1.13;;;25.10;48.00;;;;;;4898153;28;90174;-71
2022/06/05 06:09:22;;;;;;;1.70;1.10;;;25.10;48.00;;;;;;4900577;28;90058;-70
2022/06/05 06:11:50;;;;;;;1.47;1.30;;;25.10;48.00;;;;;;4901780;28;88560;-72
2022/06/05 06:14:18;;;;;;;1.30;1.20;;;25.10;47.90;;;;;;4902586;28;91868;-71
2022/06/05 06:16:46;;;;;;;1.37;1.27;;;25.10;47.90;;;;;;4903825;28;89473;-71
2022/06/05 06:19:14;;;;;;;2.67;1.80;;;25.10;47.90;;;;;;4901664;28;88440;-71
2022/06/05 06:21:44;;;;;;;1.43;1.10;;;25.10;47.90;;;;;;4899729;28;88432;-71
2022/06/05 06:24:12;;;;;;;2.07;1.50;;;25.10;47.80;;;;;;4900782;28;90145;-71
2022/06/05 06:26:40;;;;;;;1.60;1.50;;;25.10;47.80;;;;;;4897870;28;90009;-70
2022/06/05 06:29:08;;;;;;;2.30;1.03;;;25.10;47.80;;;;;;4899737;28;88686;-71
2022/06/05 06:31:38;;;;;;;3.07;1.60;;;25.10;47.80;;;;;;4897327;28;88480;-71
2022/06/05 06:34:06;;;;;;;1.40;1.13;;;25.10;47.80;;;;;;4901797;28;90605;-70
2022/06/05 06:36:34;;;;;;;1.60;1.50;;;25.10;47.80;;;;;;4898736;28;90147;-72
2022/06/05 06:39:20;;;;;;;2.83;1.70;;;25.10;47.80;;;;;;4897988;28;89424;-71
2022/06/05 06:41:50;;;;;;;1.47;1.37;;;25.10;47.70;;;;;;4897784;28;88964;-72
2022/06/05 06:44:18;;;;;;;2.30;1.27;;;25.10;47.70;;;;;;4897108;28;91053;-71
2022/06/05 06:46:46;;;;;;;2.10;1.20;;;25.10;47.70;;;;;;4900170;28;90172;-72
2022/06/05 06:49:14;;;;;;;2.53;1.50;;;25.10;47.60;;;;;;4899381;28;91084;-73
2022/06/05 06:51:42;;;;;;;1.20;1.10;;;25.10;47.60;;;;;;4897432;28;88649;-72
2022/06/05 06:54:11;;;;;;;2.13;1.77;;;25.10;47.60;;;;;;4897401;28;90643;-71
2022/06/05 06:56:40;;;;;;;2.47;1.53;;;25.10;47.60;;;;;;4897118;28;89130;-72
2022/06/05 06:59:08;;;;;;;5.93;2.30;;;25.10;47.70;;;;;;4898346;28;88867;-72
2022/06/05 07:01:36;;;;;;;5.03;2.80;;;25.10;47.70;;;;;;4896518;28;88652;-71
2022/06/05 07:04:05;;;;;;;3.80;2.57;;;25.10;47.70;;;;;;4897364;28;90584;-70
2022/06/05 07:06:33;;;;;;;2.53;2.30;;;25.10;47.60;;;;;;4899632;28;89199;-72
2022/06/05 07:09:01;;;;;;;4.30;2.97;;;25.10;47.70;;;;;;4896641;28;88503;-71
2022/06/05 07:11:29;;;;;;;3.17;2.43;;;25.10;47.60;;;;;;4897694;28;88719;-72
2022/06/05 07:13:58;;;;;;;3.40;2.83;;;25.10;47.60;;;;;;4895693;28;90637;-78
2022/06/05 07:16:26;;;;;;;4.57;3.10;;;25.10;47.60;;;;;;4897237;28;89068;-78
2022/06/05 07:18:54;;;;;;;4.87;2.83;;;25.10;47.60;;;;;;4899186;28;88748;-71
2022/06/05 07:21:27;;;;;;;4.97;3.10;;;25.10;47.60;;;;;;4901246;28;88507;-71
2022/06/05 07:23:55;;;;;;;3.77;2.83;;;25.10;47.60;;;;;;4899002;28;90734;-78
2022/06/05 07:26:24;;;;;;;7.00;3.73;;;25.10;47.60;;;;;;4902345;28;90175;-78
2022/06/05 07:28:53;;;;;;;5.13;3.60;;;25.10;47.60;;;;;;4901772;28;89717;-78
2022/06/05 07:31:23;;;;;;;6.10;3.20;;;25.10;47.50;;;;;;4902419;28;88404;-78
2022/06/05 07:33:51;;;;;;;5.17;2.30;;;25.10;47.50;;;;;;4899328;28;89530;-78
2022/06/05 07:36:20;;;;;;;4.03;2.40;;;25.10;47.50;;;;;;4899301;28;90033;-77
2022/06/05 07:38:51;;;;;;;3.47;2.73;;;25.20;47.50;;;;;;4898745;28;88458;-78
2022/06/05 07:41:21;;;;;;;6.60;2.83;;;25.20;47.50;;;;;;4901939;28;88591;-79
2022/06/05 07:43:49;;;;;;;5.50;2.37;;;25.20;47.50;;;;;;4902062;28;90210;-72
2022/06/05 07:46:18;;;;;;;2.50;2.23;;;25.20;47.40;;;;;;4900429;28;89157;-72
2022/06/05 07:48:48;;;;;;;3.27;2.97;;;25.20;47.40;;;;;;4902382;28;88446;-72
2022/06/05 07:56:49;;;;;;;3.57;2.40;;;25.20;47.40;;;;;;4901296;28;92118;-78
2022/06/05 07:59:17;;;;;;;4.70;3.30;;;25.30;47.40;;;;;;4901984;28;88859;-78
2022/06/05 08:01:56;;;;;;;4.40;3.47;;;25.20;47.40;;;;;;4901397;28;88665;-78
2022/06/05 08:04:26;;;;;;;4.73;3.00;;;25.20;47.30;;;;;;4894402;28;90665;-78
2022/06/05 08:06:54;;;;;;;4.00;3.20;;;25.20;47.30;;;;;;4898811;28;89038;-77
2022/06/05 08:09:22;;;;;;;5.70;3.43;;;25.30;47.40;;;;;;4897439;28;90556;-78
2022/06/05 08:11:50;;;;;;;4.27;2.93;;;25.30;47.40;;;;;;4900164;28;88654;-78
2022/06/05 08:14:18;;;;;;;4.47;2.80;;;25.20;47.40;;;;;;4898018;28;92990;-77
2022/06/05 08:16:46;;;;;;;5.47;2.93;;;25.20;47.40;;;;;;4895721;28;89731;-78
2022/06/05 08:19:19;;;;;;;5.73;3.10;;;25.20;47.50;;;;;;4895624;28;89913;-78
2022/06/05 08:21:48;;;;;;;6.33;3.70;;;25.20;47.60;;;;;;4893205;28;89331;-76
2022/06/05 08:24:17;;;;;;;6.30;4.50;;;25.20;47.60;;;;;;4897073;28;89371;-78
2022/06/05 08:26:45;;;;;;;8.80;4.33;;;25.20;47.60;;;;;;4894184;28;89558;-76
2022/06/05 08:29:13;;;;;;;7.13;3.90;;;25.20;47.60;;;;;;4893729;28;88786;-74
2022/06/05 08:31:41;;;;;;;5.93;4.13;;;25.30;47.60;;;;;;4892141;28;88708;-76
2022/06/05 08:34:09;;;;;;;7.93;4.53;;;25.30;47.60;;;;;;4893237;28;89182;-75
2022/06/05 08:36:37;;;;;;;8.80;4.50;;;25.40;47.60;;;;;;4899632;28;90455;-74
2022/06/05 08:41:59;;;;;;;13.03;4.50;;;25.50;47.60;;;;;;4885922;28;88610;-81
2022/06/05 08:44:36;;;;;;;10.20;5.40;;;25.60;47.60;;;;;;4895574;28;90590;-80
2022/06/05 08:47:13;;;;;;;8.87;6.40;;;25.80;47.70;;;;;;4901556;28;92702;-80
2022/06/05 08:49:44;;;;;;;9.60;5.13;;;25.90;47.60;;;;;;4904674;28;88171;-80
2022/06/05 08:52:27;;;;;;;11.43;5.37;;;26.00;47.60;;;;;;4900284;28;88632;-80
2022/06/05 08:54:59;;;;;;;11.40;5.67;;;26.10;47.50;;;;;;4904072;28;89976;-79
2022/06/05 08:57:30;;;;;;;10.37;5.80;;;26.20;47.50;;;;;;4902632;28;91418;-80
2022/06/05 09:00:02;;;;;;;9.60;6.07;;;26.30;47.50;;;;;;4888235;28;89863;-80
2022/06/05 09:02:37;;;;;;;13.37;6.63;;;26.40;47.50;;;;;;4900253;28;88568;-80
2022/06/05 09:05:08;;;;;;;15.43;7.20;;;26.40;47.50;;;;;;4901886;28;90536;-80
2022/06/05 09:07:39;;;;;;;12.10;6.47;;;26.40;47.40;;;;;;4902674;28;88429;-80
2022/06/05 09:10:15;;;;;;;13.87;6.43;;;26.40;47.50;;;;;;4903181;28;89140;-80
2022/06/05 09:12:50;;;;;;;11.77;5.97;;;26.40;47.50;;;;;;4902868;28;89149;-80
2022/06/05 09:15:22;;;;;;;11.70;7.53;;;26.40;47.50;;;;;;4904020;28;90642;-81
2022/06/05 09:17:54;;;;;;;17.93;7.53;;;26.40;47.50;;;;;;4904605;28;89629;-81
2022/06/05 09:20:27;;;;;;;12.97;6.83;;;26.40;47.60;;;;;;4904022;28;88392;-81
2022/06/05 09:22:59;;;;;;;14.13;7.40;;;26.30;47.50;;;;;;4904102;28;88550;-80
2022/06/05 09:25:39;;;;;;;13.40;6.17;;;26.30;47.60;;;;;;4903129;28;89525;-80
2022/06/05 09:28:35;;;;;;;8.87;6.33;;;26.30;47.60;;;;;;4903057;28;90103;-80
2022/06/05 09:31:09;;;;;;;12.43;7.00;;;26.20;47.50;;;;;;4902956;28;88295;-81
2022/06/05 09:33:37;;;;;;;12.33;6.13;;;26.20;47.50;;;;;;4902420;28;88767;-80
2022/06/05 09:36:08;;;;;;;13.23;7.00;;;26.20;47.50;;;;;;4904344;28;89889;-81
2022/06/05 09:38:37;;;;;;;11.43;6.77;;;26.20;47.50;;;;;;4900212;28;89031;-81
2022/06/05 09:41:26;;;;;;;11.93;7.20;;;26.20;47.50;;;;;;4903167;28;88331;-81
2022/06/05 09:43:59;;;;;;;11.70;6.97;;;26.20;47.50;;;;;;4902349;28;88841;-81
2022/06/05 09:46:44;;;;;;;13.80;6.80;;;26.20;47.50;;;;;;4901819;28;89861;-80
2022/06/05 09:49:14;;;;;;;9.97;6.20;;;26.10;47.50;;;;;;4898161;28;90088;-81
2022/06/05 09:51:44;;;;;;;11.03;6.47;;;26.10;47.40;;;;;;4904529;28;88430;-81
2022/06/05 09:54:19;;;;;;;12.03;6.70;;;26.20;47.50;;;;;;4901700;28;88593;-78
2022/06/05 09:59:48;;;;;;;10.70;6.13;;;26.20;47.60;;;;;;4901356;28;92209;-77
2022/06/05 10:02:19;;;;;;;9.03;6.43;;;26.20;47.60;;;;;;4902916;28;89739;-75
2022/06/05 10:04:47;;;;;;;15.17;7.90;;;26.20;47.80;;;;;;4900309;28;88412;-74
2022/06/05 10:07:38;;;;;;;9.53;6.33;;;26.30;48.00;;;;;;4901736;28;89243;-75
2022/06/05 10:10:08;;;;;;;12.73;7.47;;;26.30;48.20;;;;;;4902329;28;88795;-75
2022/06/05 10:12:39;;;;;;;12.37;6.50;;;26.40;48.30;;;;;;4900587;28;88538;-76
2022/06/05 10:15:21;;;;;;;11.37;7.00;;;26.40;48.50;;;;;;4884044;28;88389;-78
2022/06/05 10:17:50;;;;;;;11.20;6.07;;;26.40;48.50;;;;;;4884639;28;91542;-77
2022/06/05 10:20:42;;;;;;;13.63;6.40;;;26.40;48.60;;;;;;4889014;28;89596;-77
2022/06/05 10:23:22;;;;;;;11.90;6.83;;;26.40;48.70;;;;;;4903080;28;88377;-77
2022/06/05 10:25:54;;;;;;;11.70;6.30;;;26.40;48.70;;;;;;4902346;28;88649;-76
2022/06/05 10:28:25;;;;;;;9.60;5.33;;;26.40;48.70;;;;;;4901209;28;89635;-77
2022/06/05 10:30:56;;;;;;;8.60;5.83;;;26.40;48.70;;;;;;4895604;28;92382;-76
2022/06/05 10:33:30;;;;;;;10.90;5.93;;;26.40;48.70;;;;;;4899687;28;88879;-76
2022/06/05 10:36:00;;;;;;;7.87;5.73;;;26.40;48.70;;;;;;4898556;28;88606;-76
2022/06/05 10:38:36;;;;;;;9.40;5.40;;;26.30;48.60;;;;;;4901503;28;90100;-76
2022/06/05 10:41:11;;;;;;;11.87;6.87;;;26.30;48.60;;;;;;4898889;28;92425;-76
2022/06/05 10:43:41;;;;;;;11.57;6.13;;;26.30;48.60;;;;;;4899458;28;88574;-76
2022/06/05 10:46:20;;;;;;;11.27;5.23;;;26.30;48.70;;;;;;4897711;28;88768;-76
2022/06/05 10:48:50;;;;;;;10.30;5.30;;;26.30;48.60;;;;;;4899440;28;90613;-77
2022/06/05 10:51:23;;;;;;;8.47;5.23;;;26.30;48.60;;;;;;4901119;28;89376;-76
2022/06/05 10:53:53;;;;;;;11.53;5.03;;;26.30;48.60;;;;;;4897180;28;89270;-76
2022/06/05 10:56:29;;;;;;;11.63;4.80;;;26.30;48.60;;;;;;4898958;28;88741;-76
2022/06/05 10:59:00;;;;;;;7.97;5.00;;;26.30;48.60;;;;;;4895854;28;91501;-78
2022/06/05 11:01:46;;;;;;;9.57;6.00;;;26.30;48.50;;;;;;4899282;28;89104;-77
2022/06/05 11:04:20;;;;;;;11.47;5.10;;;26.30;48.50;;;;;;4901907;28;90998;-77
2022/06/05 11:06:53;;;;;;;8.33;4.57;;;26.30;48.50;;;;;;4902488;28;88632;-77
2022/06/05 11:09:47;;;;;;;9.63;4.70;;;26.30;48.50;;;;;;4901910;28;90520;-77
2022/06/05 11:15:13;;;;;;;8.70;5.10;;;26.20;48.30;;;;;;4901760;28;91244;-77
2022/06/05 11:17:45;;;;;;;9.10;5.13;;;26.20;48.30;;;;;;4901319;28;90316;-76
2022/06/05 11:20:15;;;;;;;7.10;4.30;;;26.20;48.40;;;;;;4901327;28;90100;-77
2022/06/05 11:22:47;;;;;;;7.60;4.13;;;26.20;48.30;;;;;;4901007;28;89045;-77
2022/06/05 11:25:22;;;;;;;9.83;4.87;;;26.20;48.30;;;;;;4901675;28;91148;-77
2022/06/05 11:28:21;;;;;;;7.37;4.57;;;26.20;48.30;;;;;;4901093;28;88571;-77
2022/06/05 11:31:04;;;;;;;7.27;4.83;;;26.20;48.30;;;;;;4879085;28;89500;-77
2022/06/05 11:33:33;;;;;;;7.87;4.57;;;26.20;48.30;;;;;;4897115;28;89180;-76
2022/06/05 11:36:08;;;;;;;7.43;4.97;;;26.20;48.20;;;;;;4898761;28;89048;-76
2022/06/05 11:38:46;;;;;;;8.40;4.50;;;26.20;48.20;;;;;;4901734;28;88440;-77
2022/06/05 11:41:25;;;;;;;11.63;5.10;;;26.20;48.20;;;;;;4900617;28;89414;-76
2022/06/05 11:44:07;;;;;;;7.73;4.70;;;26.20;48.90;;;;;;4900420;28;88970;-77
2022/06/05 11:46:39;;;;;;;7.07;4.50;;;26.20;48.20;;;;;;4901605;28;89901;-77
2022/06/05 11:49:14;;;;;;;10.90;4.63;;;26.20;48.20;;;;;;4901187;28;88467;-77
2022/06/05 11:51:53;;;;;;;10.90;6.00;;;26.20;48.20;;;;;;4899195;28;88733;-77
2022/06/05 11:54:23;;;;;;;9.80;5.60;;;26.10;48.20;;;;;;4896827;28;89596;-77
2022/06/05 11:56:58;;;;;;;10.87;5.63;;;26.10;48.20;;;;;;4899190;28;88317;-78
2022/06/05 11:59:30;;;;;;;9.97;5.43;;;26.10;48.30;;;;;;4901484;28;88643;-77
2022/06/05 12:02:02;;;;;;;10.00;5.80;;;26.20;48.50;;;;;;4900562;28;89727;-76
2022/06/05 12:04:39;;;;;;;15.00;7.73;;;26.20;48.70;;;;;;4894118;28;88419;-76
2022/06/05 12:07:07;;;;;;;12.97;6.67;;;26.20;48.80;;;;;;4901410;28;88428;-76
2022/06/05 12:09:43;;;;;;;113.43;37.77;;;26.30;48.90;;;;;;4901564;28;88873;-76
2022/06/05 12:12:15;;;;;;;104.23;31.37;;;26.40;49.20;;;;;;4903008;28;89810;-76
2022/06/05 12:14:46;;;;;;;108.37;29.43;;;26.50;49.30;;;;;;4904282;28;88796;-77
2022/06/05 12:17:18;;;;;;;65.73;22.17;;;26.60;49.40;;;;;;4903184;28;89191;-73
2022/06/05 12:19:53;;;;;;;41.10;18.70;;;26.60;49.50;;;;;;4901254;28;88600;-74
2022/06/05 12:22:24;;;;;;;55.10;26.63;;;26.70;49.50;;;;;;4903249;28;88732;-74
2022/06/05 12:24:55;;;;;;;69.67;34.00;;;26.80;50.20;;;;;;4888118;28;91291;-75
2022/06/05 12:27:24;;;;;;;67.37;30.50;;;26.80;49.70;;;;;;4895192;28;88931;-75
2022/06/05 12:29:54;;;;;;;62.97;31.03;;;26.90;49.90;;;;;;4904014;28;88312;-74
2022/06/05 12:32:28;;;;;;;60.10;28.33;;;26.90;50.70;;;;;;4903206;28;92925;-73
2022/06/05 12:35:00;;;;;;;56.67;24.40;;;26.90;50.10;;;;;;4897122;28;91374;-68
2022/06/05 12:37:29;;;;;;;45.27;21.77;;;26.90;50.10;;;;;;4903209;28;89888;-71
2022/06/05 12:39:57;;;;;;;45.00;20.83;;;26.90;50.10;;;;;;4903244;28;88355;-71
2022/06/05 12:42:35;;;;;;;33.60;19.77;;;26.90;50.10;;;;;;4903564;28;92526;-71
2022/06/05 12:45:19;;;;;;;31.77;17.23;;;26.80;50.20;;;;;;4902991;28;91771;-72
2022/06/05 12:47:59;;;;;;;39.80;15.27;;;26.80;50.20;;;;;;4904109;28;88331;-72
2022/06/05 12:50:37;;;;;;;26.67;15.47;;;26.80;50.20;;;;;;4917437;28;88617;-71
2022/06/05 12:53:08;;;;;;;29.97;14.37;;;26.80;50.10;;;;;;4902927;28;88528;-71
2022/06/05 12:55:39;;;;;;;28.80;13.63;;;26.70;50.10;;;;;;4903155;28;89758;-70
2022/06/05 12:58:15;;;;;;;23.27;11.60;;;26.70;50.10;;;;;;4903499;28;88462;-71
2022/06/05 13:00:53;;;;;;;26.07;13.33;;;26.70;50.10;;;;;;4903588;28;88371;-71
2022/06/05 13:03:31;;;;;;;25.10;12.50;;;26.70;50.10;;;;;;4904466;28;89708;-71
2022/06/05 13:06:01;;;;;;;16.73;11.43;;;26.70;50.10;;;;;;4902688;28;88467;-71
2022/06/05 13:08:39;;;;;;;15.37;9.87;;;26.60;50.10;;;;;;4903991;28;88574;-70
2022/06/05 13:11:11;;;;;;;18.87;10.43;;;26.60;50.20;;;;;;4904487;28;88467;-71
2022/06/05 13:13:47;;;;;;;18.93;9.73;;;26.60;50.30;;;;;;4903123;28;90895;-71
2022/06/05 13:16:22;;;;;;;20.43;9.87;;;26.60;50.30;;;;;;4904077;28;88565;-71
2022/06/05 13:19:03;;;;;;;21.53;9.67;;;26.60;50.30;;;;;;4904045;28;88638;-71
2022/06/05 13:21:35;;;;;;;22.00;9.63;;;26.60;50.40;;;;;;4902958;28;88655;-71
2022/06/05 13:24:23;;;;;;;17.47;8.63;;;26.60;50.40;;;;;;4903393;28;89585;-71
2022/06/05 13:26:53;;;;;;;18.23;8.50;;;26.60;50.30;;;;;;4904009;28;88871;-72
2022/06/05 13:29:36;;;;;;;20.93;8.37;;;26.60;50.40;;;;;;4908055;28;90299;-71